Time;durP1;ratioP1;P1;durP2;ratioP2;P2;SDS_P1;SDS_P2;PMS_P1;PMS_P2;Temp;Humidity;BMP_temperature;BMP_pressure;BME280_temperature;BME280_humidity;BME280_pressure;Samples;Min_cycle;Max_cycle;Signal;HPM_P1;HPM_P2
2022/04/13 00:02:19;;;;;;;;;;;;;;;15.20;66.95;99374.41;5012182;28;19917;-90
2022/04/13 00:04:45;;;;;;;;;;;;;;;15.19;66.93;99369.19;5011090;28;19917;-90
2022/04/13 00:07:10;;;;;;;;;;;;;;;15.18;66.81;99367.53;5028181;28;19917;-90
2022/04/13 00:09:35;;;;;;;;;;;;;;;15.15;66.00;99368.72;5028253;28;19921;-90
2022/04/13 00:12:00;;;;;;;;;;;;;;;15.16;66.74;99366.88;5028400;28;19974;-90
2022/04/13 00:14:25;;;;;;;;;;;;;;;15.14;65.98;99368.91;5027923;28;19995;-90
2022/04/13 00:16:51;;;;;;;;;;;;;;;15.12;66.13;99377.13;5027472;28;19979;-90
2022/04/13 00:19:17;;;;;;;;;;;;;;;15.11;65.79;99378.16;5011728;28;19921;-90
2022/04/13 00:21:42;;;;;;;;;;;;;;;15.10;66.25;99380.00;5030149;28;20273;-90
2022/04/13 00:24:08;;;;;;;;;;;;;;;15.08;65.55;99386.59;5011666;28;20011;-90
2022/04/13 00:26:33;;;;;;;;;;;;;;;15.06;66.13;99381.41;5030897;28;19923;-90
2022/04/13 00:28:58;;;;;;;;;;;;;;;15.07;66.02;99384.94;5029233;28;20426;-90
2022/04/13 00:31:23;;;;;;;;;;;;;;;15.06;66.36;99389.47;5012267;28;19917;-90
2022/04/13 00:33:49;;;;;;;;;;;;;;;15.06;65.96;99385.94;5028796;28;20471;-90
2022/04/13 00:36:14;;;;;;;;;;;;;;;15.05;65.91;99389.66;5028411;28;19917;-90
2022/04/13 00:38:39;;;;;;;;;;;;;;;15.04;65.86;99391.50;5027478;28;19968;-90
2022/04/13 00:41:04;;;;;;;;;;;;;;;15.03;65.73;99397.06;5028275;28;19924;-90
2022/04/13 00:43:36;;;;;;;;;;;;;;;15.03;65.77;99402.47;5027311;28;19921;-90
2022/04/13 00:46:01;;;;;;;;;;;;;;;15.03;65.79;99402.47;5027928;28;20024;-90
2022/04/13 00:48:32;;;;;;;;;;;;;;;15.02;66.23;99396.25;5027571;28;20004;-90
2022/04/13 00:50:58;;;;;;;;;;;;;;;15.02;66.40;99409.72;5028467;28;20763;-90
2022/04/13 00:53:23;;;;;;;;;;;;;;;15.01;66.11;99404.50;5027759;28;19929;-90
2022/04/13 00:55:49;;;;;;;;;;;;;;;15.01;66.03;99399.13;5044147;28;19921;-90
2022/04/13 00:58:14;;;;;;;;;;;;;;;14.99;66.29;99401.16;5027605;28;19913;-90
2022/04/13 01:00:50;;;;;;;;;;;;;;;14.96;66.35;99401.50;5027571;28;19921;-90
2022/04/13 01:03:16;;;;;;;;;;;;;;;14.95;65.98;99407.91;5011723;28;19934;-90
2022/04/13 01:05:41;;;;;;;;;;;;;;;14.92;65.87;99409.13;5027648;28;20010;-90
2022/04/13 01:08:08;;;;;;;;;;;;;;;14.91;66.47;99412.00;5027667;28;19917;-90
2022/04/13 01:10:33;;;;;;;;;;;;;;;14.91;66.09;99414.69;5027715;28;20327;-89
2022/04/13 01:12:58;;;;;;;;;;;;;;;14.90;66.48;99407.63;5027994;28;19928;-90
2022/04/13 01:15:23;;;;;;;;;;;;;;;14.92;66.40;99413.66;5028300;28;19917;-90
2022/04/13 01:17:48;;;;;;;;;;;;;;;14.89;66.70;99411.31;5031355;28;19921;-90
2022/04/13 01:20:16;;;;;;;;;;;;;;;14.90;66.15;99418.38;5031598;28;19917;-90
2022/04/13 01:22:41;;;;;;;;;;;;;;;14.91;67.19;99414.69;5032700;28;19940;-90
2022/04/13 01:25:07;;;;;;;;;;;;;;;14.90;66.68;99421.91;5031889;28;20365;-90
2022/04/13 01:27:32;;;;;;;;;;;;;;;14.87;67.09;99422.28;5030934;28;19959;-90
2022/04/13 01:29:57;;;;;;;;;;;;;;;14.86;66.49;99419.75;5031419;28;19914;-90
2022/04/13 01:32:22;;;;;;;;;;;;;;;14.85;66.63;99418.09;5031047;28;19928;-90
2022/04/13 01:34:48;;;;;;;;;;;;;;;14.85;66.27;99418.09;5030903;28;20361;-90
2022/04/13 01:37:14;;;;;;;;;;;;;;;14.84;66.54;99424.50;5030911;28;20028;-90
2022/04/13 01:39:39;;;;;;;;;;;;;;;14.84;66.69;99428.03;5031309;28;20429;-90
2022/04/13 01:42:04;;;;;;;;;;;;;;;14.83;65.96;99433.59;5014650;28;20569;-90
2022/04/13 01:44:30;;;;;;;;;;;;;;;14.82;66.46;99431.91;5047911;28;19921;-90
2022/04/13 01:46:55;;;;;;;;;;;;;;;14.80;66.82;99438.31;5030367;28;19921;-90
2022/04/13 01:49:20;;;;;;;;;;;;;;;14.80;67.12;99438.31;5031505;28;19967;-90
2022/04/13 01:51:45;;;;;;;;;;;;;;;14.80;66.60;99448.25;5030830;28;19921;-90
2022/04/13 01:54:11;;;;;;;;;;;;;;;14.80;66.67;99445.53;5030640;28;19932;-90
2022/04/13 01:56:36;;;;;;;;;;;;;;;14.80;67.07;99446.38;5030459;28;19932;-90
2022/04/13 01:59:01;;;;;;;;;;;;;;;14.78;66.66;99447.56;5014341;28;19913;-90
2022/04/13 02:01:27;;;;;;;;;;;;;;;14.76;67.20;99453.13;5030950;28;20235;-90
2022/04/13 02:03:52;;;;;;;;;;;;;;;14.76;67.04;99458.53;5031809;28;19917;-90
2022/04/13 02:06:18;;;;;;;;;;;;;;;14.73;67.05;99461.56;5014042;28;19924;-90
2022/04/13 02:08:43;;;;;;;;;;;;;;;14.73;67.42;99455.34;5013960;28;19917;-90
2022/04/13 02:11:09;;;;;;;;;;;;;;;14.71;67.56;99452.84;5030336;28;19932;-90
2022/04/13 02:13:34;;;;;;;;;;;;;;;14.71;68.02;99458.22;5030052;28;19917;-90
2022/04/13 02:15:59;;;;;;;;;;;;;;;14.72;68.17;99457.19;5029743;28;20141;-90
2022/04/13 02:18:24;;;;;;;;;;;;;;;14.72;67.75;99461.75;5030580;28;19920;-90
2022/04/13 02:20:50;;;;;;;;;;;;;;;14.71;68.04;99465.44;5030274;28;19913;-90
2022/04/13 02:23:15;;;;;;;;;;;;;;;14.70;67.85;99467.31;5030799;28;19924;-90
2022/04/13 02:25:40;;;;;;;;;;;;;;;14.73;68.21;99463.41;5013477;28;19920;-90
2022/04/13 02:28:06;;;;;;;;;;;;;;;14.70;68.14;99461.94;5029486;28;19925;-90
2022/04/13 02:30:31;;;;;;;;;;;;;;;14.71;68.02;99471.69;5029915;28;19913;-89
2022/04/13 02:32:56;;;;;;;;;;;;;;;14.72;67.69;99465.28;5030230;28;19928;-90
2022/04/13 02:35:22;;;;;;;;;;;;;;;14.72;68.29;99467.97;5013104;28;19921;-90
2022/04/13 02:37:47;;;;;;;;;;;;;;;14.72;67.91;99470.66;5029626;28;19921;-90
2022/04/13 02:40:13;;;;;;;;;;;;;;;14.72;68.70;99470.66;5029736;28;19917;-90
2022/04/13 02:42:39;;;;;;;;;;;;;;;14.71;68.63;99482.44;5030036;28;19956;-90
2022/04/13 02:45:05;;;;;;;;;;;;;;;14.73;68.78;99475.03;5005419;28;19983;-90
2022/04/13 02:47:33;;;;;;;;;;;;;;;14.71;68.93;99468.16;5013097;28;19925;-90
2022/04/13 02:50:00;;;;;;;;;;;;;;;14.69;68.81;99473.72;5029986;28;20273;-90
2022/04/13 02:52:28;;;;;;;;;;;;;;;14.66;68.68;99471.38;5030218;28;19916;-90
2022/04/13 02:54:53;;;;;;;;;;;;;;;14.66;68.95;99476.75;5029438;28;19932;-90
2022/04/13 02:57:18;;;;;;;;;;;;;;;14.63;69.56;99478.94;5029607;28;20008;-90
2022/04/13 02:59:46;;;;;;;;;;;;;;;14.64;69.19;99480.59;5029265;28;20261;-90
2022/04/13 03:02:11;;;;;;;;;;;;;;;14.64;69.68;99484.13;5029316;28;19960;-90
2022/04/13 03:04:37;;;;;;;;;;;;;;;14.62;69.99;99488.84;5013131;28;19964;-90
2022/04/13 03:07:02;;;;;;;;;;;;;;;14.62;70.02;99491.53;5029314;28;19921;-90
2022/04/13 03:09:27;;;;;;;;;;;;;;;14.60;70.23;99493.56;5029361;28;19917;-90
2022/04/13 03:11:52;;;;;;;;;;;;;;;14.60;69.66;99493.56;5029370;28;19917;-90
2022/04/13 03:14:18;;;;;;;;;;;;;;;14.59;69.78;99491.06;5028717;28;19921;-90
2022/04/13 03:16:44;;;;;;;;;;;;;;;14.59;70.25;99501.81;5012908;28;19942;-90
2022/04/13 03:19:09;;;;;;;;;;;;;;;14.56;69.84;99505.69;5029220;28;19927;-90
2022/04/13 03:21:34;;;;;;;;;;;;;;;14.54;70.61;99504.19;5029242;28;19952;-90
2022/04/13 03:23:59;;;;;;;;;;;;;;;14.52;69.86;99507.06;5012583;28;19917;-90
2022/04/13 03:26:25;;;;;;;;;;;;;;;14.46;70.12;99508.59;5028892;28;19917;-90
2022/04/13 03:28:51;;;;;;;;;;;;;;;14.41;70.77;99502.88;5029396;28;20251;-90
2022/04/13 03:31:16;;;;;;;;;;;;;;;14.45;70.36;99508.78;5012678;28;19921;-90
2022/04/13 03:33:42;;;;;;;;;;;;;;;14.44;70.51;99499.03;5012602;28;19918;-90
2022/04/13 03:36:07;;;;;;;;;;;;;;;14.45;70.65;99506.94;5012519;28;20824;-90
2022/04/13 03:38:32;;;;;;;;;;;;;;;14.45;71.03;99504.22;5027281;28;20257;-90
2022/04/13 03:40:57;;;;;;;;;;;;;;;14.44;70.53;99507.94;5028634;28;20450;-90
2022/04/13 03:43:26;;;;;;;;;;;;;;;14.44;70.40;99515.16;5029035;28;20325;-90
2022/04/13 03:45:52;;;;;;;;;;;;;;;14.40;70.53;99509.28;5009980;28;19967;-90
2022/04/13 03:48:17;;;;;;;;;;;;;;;14.42;70.91;99506.41;5017902;28;20216;-90
2022/04/13 03:50:42;;;;;;;;;;;;;;;14.42;70.71;99501.91;5028736;28;20325;-90
2022/04/13 03:53:07;;;;;;;;;;;;;;;14.41;70.74;99505.56;5028372;28;20388;-90
2022/04/13 03:55:33;;;;;;;;;;;;;;;14.40;70.00;99505.75;5028559;28;19929;-90
2022/04/13 03:57:58;;;;;;;;;;;;;;;14.41;70.58;99504.72;5011845;28;19996;-90
2022/04/13 04:00:25;;;;;;;;;;;;;;;14.38;70.18;99505.91;5028282;28;19921;-90
2022/04/13 04:02:51;;;;;;;;;;;;;;;14.36;70.91;99505.25;5028223;28;19925;-90
2022/04/13 04:05:17;;;;;;;;;;;;;;;14.35;70.84;99517.03;5028638;28;19931;-90
2022/04/13 04:07:42;;;;;;;;;;;;;;;14.35;70.56;99505.41;5027905;28;20012;-90
2022/04/13 04:10:07;;;;;;;;;;;;;;;14.29;70.08;99512.34;5028354;28;19924;-90
2022/04/13 04:12:39;;;;;;;;;;;;;;;14.31;70.48;99523.75;5011621;28;19928;-90
2022/04/13 04:15:05;;;;;;;;;;;;;;;14.30;71.16;99521.25;5028043;28;19928;-90
2022/04/13 04:17:30;;;;;;;;;;;;;;;14.29;70.34;99516.88;5027891;28;20251;-90
2022/04/13 04:19:55;;;;;;;;;;;;;;;14.27;70.42;99524.28;5011428;28;19921;-90
2022/04/13 04:22:23;;;;;;;;;;;;;;;14.29;70.83;99516.88;5027787;28;19917;-90
2022/04/13 04:24:48;;;;;;;;;;;;;;;14.24;70.92;99514.72;5028769;28;19991;-90
2022/04/13 04:27:13;;;;;;;;;;;;;;;14.20;70.89;99515.22;5027699;28;19917;-90
2022/04/13 04:29:38;;;;;;;;;;;;;;;14.19;70.89;99530.53;5011624;28;20326;-90
2022/04/13 04:32:04;;;;;;;;;;;;;;;14.18;71.15;99521.59;5027790;28;20649;-90
2022/04/13 04:34:29;;;;;;;;;;;;;;;14.18;70.37;99532.34;5027847;28;19927;-90
2022/04/13 04:36:55;;;;;;;;;;;;;;;14.17;70.47;99530.66;5027520;28;19924;-90
2022/04/13 04:39:20;;;;;;;;;;;;;;;14.15;70.40;99534.53;5028070;28;19923;-90
2022/04/13 04:41:47;;;;;;;;;;;;;;;14.08;70.91;99539.75;5028494;28;19939;-90
2022/04/13 04:44:12;;;;;;;;;;;;;;;14.07;70.66;99545.31;5011620;28;19913;-90
2022/04/13 04:46:37;;;;;;;;;;;;;;;14.07;70.63;99551.53;5011307;28;19932;-90
2022/04/13 04:49:03;;;;;;;;;;;;;;;14.02;70.94;99561.94;5011290;28;19925;-90
2022/04/13 04:51:30;;;;;;;;;;;;;;;13.96;71.54;99557.25;5028748;28;19979;-90
2022/04/13 04:53:55;;;;;;;;;;;;;;;13.93;71.12;99564.81;5027360;28;19929;-90
2022/04/13 04:56:21;;;;;;;;;;;;;;;13.96;71.34;99559.94;5027788;28;19928;-90
2022/04/13 04:58:46;;;;;;;;;;;;;;;13.91;71.06;99561.47;5027652;28;19921;-90
2022/04/13 05:01:11;;;;;;;;;;;;;;;13.92;71.27;99566.66;5027511;28;19917;-90
2022/04/13 05:03:36;;;;;;;;;;;;;;;13.90;70.60;99566.00;5027748;28;19916;-90
2022/04/13 05:06:02;;;;;;;;;;;;;;;13.88;70.81;99568.03;5027484;28;19928;-90
2022/04/13 05:08:27;;;;;;;;;;;;;;;13.87;70.43;99569.03;5010911;28;19917;-90
2022/04/13 05:10:52;;;;;;;;;;;;;;;13.90;70.50;99571.38;5028029;28;19927;-90
2022/04/13 05:13:17;;;;;;;;;;;;;;;13.90;71.03;99573.22;5011205;28;19924;-90
2022/04/13 05:15:43;;;;;;;;;;;;;;;13.92;71.02;99572.06;5010962;28;19964;-90
2022/04/13 05:18:08;;;;;;;;;;;;;;;13.89;70.87;99580.44;5010693;28;20003;-90
2022/04/13 05:20:33;;;;;;;;;;;;;;;13.89;70.80;99579.63;5027364;28;19967;-90
2022/04/13 05:22:58;;;;;;;;;;;;;;;13.89;70.88;99588.50;5027643;28;20024;-90
2022/04/13 05:25:23;;;;;;;;;;;;;;;13.90;71.02;99590.19;5027853;28;20004;-90
2022/04/13 05:27:49;;;;;;;;;;;;;;;13.93;71.05;99592.53;5028003;28;19917;-90
2022/04/13 05:30:14;;;;;;;;;;;;;;;13.94;71.43;99591.53;5027696;28;19917;-90
2022/04/13 05:32:48;;;;;;;;;;;;;;;13.92;71.48;99596.25;5027611;28;19925;-90
2022/04/13 05:35:13;;;;;;;;;;;;;;;13.87;71.92;99603.97;5060188;28;19917;-90
2022/04/13 05:37:39;;;;;;;;;;;;;;;13.86;72.13;99613.03;5027422;28;19928;-90
2022/04/13 05:40:04;;;;;;;;;;;;;;;13.80;71.92;99611.88;5027378;28;19988;-90
2022/04/13 05:42:30;;;;;;;;;;;;;;;13.76;72.14;99612.38;5027293;28;19917;-90
2022/04/13 05:44:57;;;;;;;;;;;;;;;13.81;72.14;99618.09;5027135;28;19924;-90
2022/04/13 05:47:22;;;;;;;;;;;;;;;13.83;72.10;99627.66;5026873;28;19986;-90
2022/04/13 05:49:47;;;;;;;;;;;;;;;13.86;71.76;99619.25;5010743;28;20561;-90
2022/04/13 05:52:12;;;;;;;;;;;;;;;13.86;71.67;99619.25;5027905;28;20331;-90
2022/04/13 05:54:37;;;;;;;;;;;;;;;13.89;72.64;99619.94;5010597;28;19932;-90
2022/04/13 05:57:03;;;;;;;;;;;;;;;13.91;72.18;99624.13;5027214;28;20336;-90
2022/04/13 05:59:28;;;;;;;;;;;;;;;13.93;72.14;99623.97;5027236;28;19917;-89
2022/04/13 06:01:53;;;;;;;;;;;;;;;14.00;72.00;99623.13;5028687;28;19978;-90
2022/04/13 06:04:19;;;;;;;;;;;;;;;13.96;72.21;99621.78;5014139;28;20365;-90
2022/04/13 06:06:44;;;;;;;;;;;;;;;13.93;72.98;99616.75;5013883;28;19916;-90
2022/04/13 06:09:09;;;;;;;;;;;;;;;13.94;72.91;99621.09;5030700;28;19917;-90
2022/04/13 06:11:34;;;;;;;;;;;;;;;13.94;73.27;99618.41;5030596;28;19925;-90
2022/04/13 06:13:59;;;;;;;;;;;;;;;13.99;72.62;99621.44;5030456;28;19921;-90
2022/04/13 06:16:24;;;;;;;;;;;;;;;14.01;73.44;99632.03;5030163;28;19917;-90
2022/04/13 06:18:50;;;;;;;;;;;;;;;14.02;73.33;99633.72;5030452;28;19971;-90
2022/04/13 06:21:15;;;;;;;;;;;;;;;14.03;73.37;99633.53;5030734;28;19997;-90
2022/04/13 06:23:40;;;;;;;;;;;;;;;14.04;73.07;99635.22;5030567;28;19917;-90
2022/04/13 06:26:05;;;;;;;;;;;;;;;14.05;73.18;99634.22;5013862;28;19921;-90
2022/04/13 06:28:31;;;;;;;;;;;;;;;14.06;73.31;99645.81;5029445;28;20317;-90
2022/04/13 06:30:56;;;;;;;;;;;;;;;14.06;72.71;99651.19;5030041;28;20350;-90
2022/04/13 06:33:21;;;;;;;;;;;;;;;14.08;72.66;99665.31;5030427;28;19913;-90
2022/04/13 06:35:46;;;;;;;;;;;;;;;14.08;72.85;99659.94;5030454;28;19931;-90
2022/04/13 06:38:12;;;;;;;;;;;;;;;14.09;73.04;99664.28;5029765;28;19928;-90
2022/04/13 06:40:37;;;;;;;;;;;;;;;14.11;73.67;99659.59;5030219;28;19917;-90
2022/04/13 06:43:02;;;;;;;;;;;;;;;14.12;72.94;99654.03;5030647;28;19967;-90
2022/04/13 06:45:28;;;;;;;;;;;;;;;14.13;74.24;99650.34;5029345;28;20056;-90
2022/04/13 06:47:53;;;;;;;;;;;;;;;14.14;73.32;99657.41;5029485;28;19917;-90
2022/04/13 06:50:18;;;;;;;;;;;;;;;14.15;73.61;99660.94;5013208;28;19917;-90
2022/04/13 06:52:44;;;;;;;;;;;;;;;14.18;73.97;99661.44;5029727;28;19913;-89
2022/04/13 06:55:12;;;;;;;;;;;;;;;14.21;73.86;99671.03;5013401;28;19921;-90
2022/04/13 06:57:38;;;;;;;;;;;;;;;14.25;74.13;99674.25;5013707;28;19928;-90
2022/04/13 07:00:04;;;;;;;;;;;;;;;14.26;74.08;99678.59;5012947;28;19917;-90
2022/04/13 07:02:30;;;;;;;;;;;;;;;14.29;74.19;99675.56;5029756;28;19913;-90
2022/04/13 07:04:55;;;;;;;;;;;;;;;14.31;74.35;99676.25;5013193;28;20296;-90
2022/04/13 07:07:20;;;;;;;;;;;;;;;14.33;74.22;99683.13;5013073;28;20429;-90
2022/04/13 07:09:45;;;;;;;;;;;;;;;14.34;74.77;99687.50;5029397;28;19913;-90
2022/04/13 07:12:10;;;;;;;;;;;;;;;14.36;74.38;99687.34;5029245;28;19913;-90
2022/04/13 07:14:36;;;;;;;;;;;;;;;14.36;74.99;99685.50;5028784;28;20445;-90
2022/04/13 07:17:01;;;;;;;;;;;;;;;14.39;74.91;99695.91;5012915;28;20055;-90
2022/04/13 07:19:26;;;;;;;;;;;;;;;14.39;75.51;99698.59;5029135;28;19921;-90
2022/04/13 07:21:51;;;;;;;;;;;;;;;14.40;75.38;99700.28;5029442;28;20220;-90
2022/04/13 07:24:16;;;;;;;;;;;;;;;14.43;74.99;99701.81;5028966;28;19917;-90
2022/04/13 07:26:42;;;;;;;;;;;;;;;14.44;75.89;99693.59;5029609;28;20338;-90
2022/04/13 07:29:07;;;;;;;;;;;;;;;14.44;75.44;99701.66;5012418;28;19928;-90
2022/04/13 07:31:32;;;;;;;;;;;;;;;14.45;75.64;99697.13;5012646;28;19913;-90
2022/04/13 07:33:57;;;;;;;;;;;;;;;14.43;75.68;99699.97;5028838;28;19917;-90
2022/04/13 07:36:23;;;;;;;;;;;;;;;14.45;76.19;99697.97;5029121;28;19921;-90
2022/04/13 07:38:50;;;;;;;;;;;;;;;14.48;75.39;99705.69;5028317;28;20212;-90
2022/04/13 07:41:15;;;;;;;;;;;;;;;14.53;75.84;99709.72;5029427;28;20402;-90
2022/04/13 07:43:40;;;;;;;;;;;;;;;14.56;76.13;99707.53;5028969;28;19995;-90
2022/04/13 07:46:05;;;;;;;;;;;;;;;14.58;76.02;99710.88;5028513;28;20092;-90
2022/04/13 07:48:31;;;;;;;;;;;;;;;14.61;75.67;99712.41;5028044;28;19917;-90
2022/04/13 07:50:56;;;;;;;;;;;;;;;14.61;76.05;99710.56;5029966;28;20152;-90
2022/04/13 07:53:21;;;;;;;;;;;;;;;14.61;75.82;99715.94;5028869;28;20350;-90
2022/04/13 07:55:46;;;;;;;;;;;;;;;14.64;76.49;99715.59;5028748;28;20238;-90
2022/04/13 07:58:11;;;;;;;;;;;;;;;14.69;76.62;99709.72;5028454;28;19913;-90
2022/04/13 08:00:37;;;;;;;;;;;;;;;14.71;76.44;99718.47;5028808;28;20371;-90
2022/04/13 08:03:02;;;;;;;;;;;;;;;14.70;76.21;99720.31;5011967;28;19917;-90
2022/04/13 08:05:27;;;;;;;;;;;;;;;14.70;76.34;99720.31;5029938;28;19917;-90
2022/04/13 08:07:52;;;;;;;;;;;;;;;14.71;76.87;99724.69;5027872;28;20254;-90
2022/04/13 08:10:17;;;;;;;;;;;;;;;14.74;76.31;99723.50;5028425;28;19913;-90
2022/04/13 08:12:46;;;;;;;;;;;;;;;14.73;76.20;99730.75;5011446;28;19953;-90
2022/04/13 08:15:12;;;;;;;;;;;;;;;14.72;76.56;99730.91;5012198;28;19928;-90
2022/04/13 08:17:40;;;;;;;;;;;;;;;14.73;77.21;99744.22;5011711;28;19917;-90
2022/04/13 08:20:07;;;;;;;;;;;;;;;14.73;76.47;99736.13;5028076;28;19913;-90
2022/04/13 08:22:32;;;;;;;;;;;;;;;14.75;76.70;99742.19;5011740;28;19975;-90
2022/04/13 08:24:57;;;;;;;;;;;;;;;14.74;76.69;99750.44;5011105;28;19917;-90
2022/04/13 08:27:22;;;;;;;;;;;;;;;14.73;76.88;99749.59;5027855;28;19944;-90
2022/04/13 08:29:47;;;;;;;;;;;;;;;14.71;76.98;99748.09;5028083;28;19913;-89
2022/04/13 08:32:15;;;;;;;;;;;;;;;14.70;77.43;99758.00;5027938;28;19916;-90
2022/04/13 08:34:41;;;;;;;;;;;;;;;14.69;77.76;99761.72;5027992;28;19921;-90
2022/04/13 08:37:06;;;;;;;;;;;;;;;14.69;77.71;99758.19;5011268;28;19921;-90
2022/04/13 08:39:31;;;;;;;;;;;;;;;14.68;77.66;99751.13;5028050;28;19917;-90
2022/04/13 08:41:57;;;;;;;;;;;;;;;14.69;78.40;99753.63;5027737;28;19961;-90
2022/04/13 08:44:36;;;;;;;;;;;;;;;14.71;77.88;99754.31;5011329;28;19921;-90
2022/04/13 08:47:02;;;;;;;;;;;;;;;14.73;77.67;99751.44;5027572;28;20259;-90
2022/04/13 08:49:27;;;;;;;;;;;;;;;14.73;77.57;99756.84;5011281;28;19921;-90
2022/04/13 08:51:53;;;;;;;;;;;;;;;14.73;77.60;99759.53;5027717;28;19921;-90
2022/04/13 08:54:19;;;;;;;;;;;;;;;14.77;77.94;99768.94;5027589;28;19932;-90
2022/04/13 08:56:47;;;;;;;;;;;;;;;14.79;77.45;99761.53;5001983;28;19956;-90
2022/04/13 08:59:22;;;;;;;;;;;;;;;14.84;77.70;99761.03;5027958;28;19917;-92
2022/04/13 09:02:04;;;;;;;;;;;;;;;14.87;77.28;99755.28;5027685;28;19964;-92
2022/04/13 09:04:30;;;;;;;;;;;;;;;14.85;77.53;99771.63;5027232;28;19917;-91
2022/04/13 09:06:55;;;;;;;;;;;;;;;14.88;77.90;99775.81;5010756;28;19924;-92
2022/04/13 09:09:25;;;;;;;;;;;;;;;14.93;77.55;99781.53;5011258;28;19978;-92
2022/04/13 09:11:50;;;;;;;;;;;;;;;14.95;77.32;99779.50;5027239;28;19917;-91
2022/04/13 09:14:16;;;;;;;;;;;;;;;14.98;77.26;99780.00;5027200;28;20795;-91
2022/04/13 09:16:43;;;;;;;;;;;;;;;15.00;76.59;99779.84;5010858;28;19921;-92
2022/04/13 09:19:08;;;;;;;;;;;;;;;15.05;76.83;99785.56;5027462;28;20187;-92
2022/04/13 09:21:33;;;;;;;;;;;;;;;15.10;76.46;99778.63;5011160;28;19913;-92
2022/04/13 09:23:59;;;;;;;;;;;;;;;15.13;76.79;99788.22;5027467;28;19917;-92
2022/04/13 09:26:25;;;;;;;;;;;;;;;15.11;77.02;99785.72;5010714;28;19913;-92
2022/04/13 09:28:50;;;;;;;;;;;;;;;15.15;76.16;99780.84;5027445;28;19923;-92
2022/04/13 09:31:15;;;;;;;;;;;;;;;15.18;76.41;99785.06;5027325;28;19920;-91
2022/04/13 09:33:40;;;;;;;;;;;;;;;15.20;76.39;99785.72;5027307;28;19921;-92
2022/04/13 09:36:05;;;;;;;;;;;;;;;15.23;76.19;99788.06;5028036;28;19936;-92
2022/04/13 09:38:31;;;;;;;;;;;;;;;15.22;77.01;99789.91;5014263;28;19917;-92
2022/04/13 09:41:05;;;;;;;;;;;;;;;15.23;76.06;99790.75;5031247;28;19917;-92
2022/04/13 09:43:30;;;;;;;;;;;;;;;15.24;76.39;99790.59;5030902;28;19917;-92
2022/04/13 09:45:57;;;;;;;;;;;;;;;15.23;76.30;99791.59;5031080;28;19994;-92
2022/04/13 09:48:23;;;;;;;;;;;;;;;15.28;75.88;99791.94;5030752;28;19917;-91
2022/04/13 09:50:52;;;;;;;;;;;;;;;15.32;75.93;99803.19;5030092;28;19921;-92
2022/04/13 09:53:18;;;;;;;;;;;;;;;15.32;nan;99790.56;5030436;28;19929;-92
2022/04/13 09:55:44;;;;;;;;;;;;;;;15.34;76.59;99804.72;5030470;28;19932;-92
2022/04/13 09:58:13;;;;;;;;;;;;;;;15.40;75.76;99793.25;5030493;28;19917;-92
2022/04/13 10:00:39;;;;;;;;;;;;;;;15.41;75.67;99792.22;5030678;28;20091;-92
2022/04/13 10:03:23;;;;;;;;;;;;;;;15.41;75.70;99794.91;5013919;28;20387;-92
2022/04/13 10:05:50;;;;;;;;;;;;;;;15.41;76.53;99786.84;5030586;28;20282;-92
2022/04/13 10:08:18;;;;;;;;;;;;;;;15.42;75.53;99790.38;5030150;28;19924;-92
2022/04/13 10:10:46;;;;;;;;;;;;;;;15.43;75.47;99792.88;5014463;28;19917;-92
2022/04/13 10:13:12;;;;;;;;;;;;;;;15.49;73.92;99801.28;5030209;28;19933;-92
2022/04/13 10:15:37;;;;;;;;;;;;;;;15.43;73.67;99802.81;5013694;28;19921;-92
2022/04/13 10:18:05;;;;;;;;;;;;;;;15.49;73.52;99798.59;5030440;28;19987;-92
2022/04/13 10:20:42;;;;;;;;;;;;;;;15.50;73.89;99798.41;5014348;28;20361;-92
2022/04/13 10:23:07;;;;;;;;;;;;;;;15.51;74.46;99801.97;5063836;28;19920;-92
2022/04/13 10:25:32;;;;;;;;;;;;;;;15.48;74.25;99803.16;5013910;28;19917;-92
2022/04/13 10:27:58;;;;;;;;;;;;;;;15.51;74.41;99801.97;5013800;28;19913;-92
2022/04/13 10:30:34;;;;;;;;;;;;;;;15.57;74.17;99806.66;5030073;28;20184;-92
2022/04/13 10:33:00;;;;;;;;;;;;;;;15.59;74.30;99801.97;5013914;28;20357;-92
2022/04/13 10:35:25;;;;;;;;;;;;;;;15.62;73.31;99799.78;5029826;28;19917;-92
2022/04/13 10:37:51;;;;;;;;;;;;;;;15.58;74.02;99802.97;5030152;28;19920;-92
2022/04/13 10:40:17;;;;;;;;;;;;;;;15.57;74.04;99801.25;5013686;28;19928;-92
2022/04/13 10:42:42;;;;;;;;;;;;;;;15.56;73.99;99808.50;5013634;28;20312;-92
2022/04/13 10:45:08;;;;;;;;;;;;;;;15.54;74.32;99798.91;5013640;28;19917;-92
2022/04/13 10:47:45;;;;;;;;;;;;;;;15.60;73.47;99812.56;5029378;28;19996;-92
2022/04/13 10:50:11;;;;;;;;;;;;;;;15.60;73.16;99809.03;5013624;28;19920;-92
2022/04/13 10:52:40;;;;;;;;;;;;;;;15.64;73.82;99813.09;5013094;28;19917;-92
2022/04/13 10:55:10;;;;;;;;;;;;;;;15.65;73.91;99822.84;5029299;28;20277;-92
2022/04/13 10:57:36;;;;;;;;;;;;;;;15.64;74.00;99816.63;5029378;28;20384;-92
2022/04/13 11:00:03;;;;;;;;;;;;;;;15.68;74.58;99817.97;5013596;28;19917;-92
2022/04/13 11:02:29;;;;;;;;;;;;;;;15.75;74.85;99820.78;5029114;28;19983;-92
2022/04/13 11:04:55;;;;;;;;;;;;;;;15.93;74.23;99825.94;5013129;28;20008;-92
2022/04/13 11:07:20;;;;;;;;;;;;;;;15.93;74.21;99823.25;5012892;28;20016;-92
2022/04/13 11:09:45;;;;;;;;;;;;;;;15.88;74.23;99829.16;5029139;28;19967;-92
2022/04/13 11:12:10;;;;;;;;;;;;;;;15.83;73.94;99817.22;5029476;28;19936;-92
2022/04/13 11:14:46;;;;;;;;;;;;;;;15.88;74.45;99821.06;5012956;28;20509;-92
2022/04/13 11:17:13;;;;;;;;;;;;;;;15.93;74.71;99825.94;5029272;28;19924;-92
2022/04/13 11:19:39;;;;;;;;;;;;;;;16.05;75.10;99830.75;5062193;28;19928;-92
2022/04/13 11:22:04;;;;;;;;;;;;;;;16.11;73.93;99828.41;5029052;28;19927;-92
2022/04/13 11:24:30;;;;;;;;;;;;;;;16.21;74.12;99829.03;5062510;28;20329;-92
2022/04/13 11:26:56;;;;;;;;;;;;;;;16.16;73.06;99829.56;5028270;28;19921;-92
2022/04/13 11:29:22;;;;;;;;;;;;;;;16.08;74.51;99826.03;5012842;28;19917;-92
2022/04/13 11:32:11;;;;;;;;;;;;;;;16.19;72.70;99828.34;5012582;28;19927;-92
2022/04/13 11:34:39;;;;;;;;;;;;;;;16.29;70.95;99828.97;5022045;28;20301;-92
2022/04/13 11:37:08;;;;;;;;;;;;;;;16.30;71.03;99826.09;5061750;28;19917;-92
2022/04/13 11:39:45;;;;;;;;;;;;;;;16.35;71.13;99825.56;5029332;28;19992;-91
2022/04/13 11:42:40;;;;;;;;;;;;;;;16.44;71.04;99837.97;5029740;28;20282;-92
2022/04/13 11:45:06;;;;;;;;;;;;;;;16.50;70.83;99839.13;5006992;28;19917;-92
2022/04/13 11:47:41;;;;;;;;;;;;;;;16.43;69.97;99839.00;5011993;28;19956;-92
2022/04/13 11:50:12;;;;;;;;;;;;;;;16.40;70.45;99841.22;5028644;28;20254;-92
2022/04/13 11:52:39;;;;;;;;;;;;;;;16.59;69.22;99843.47;5061970;28;19959;-92
2022/04/13 11:55:13;;;;;;;;;;;;;;;16.54;70.07;99840.44;5028206;28;19925;-92
2022/04/13 11:57:59;;;;;;;;;;;;;;;16.51;69.86;99836.25;5027818;28;19960;-92
2022/04/13 12:00:37;;;;;;;;;;;;;;;16.38;70.60;99836.00;5030534;28;19917;-92
2022/04/13 12:03:04;;;;;;;;;;;;;;;16.27;70.65;99837.25;5061366;28;20341;-92
2022/04/13 12:05:29;;;;;;;;;;;;;;;16.33;70.57;99838.38;5029024;28;19920;-92
2022/04/13 12:07:54;;;;;;;;;;;;;;;16.46;69.97;99838.63;5011597;28;19917;-92
2022/04/13 12:10:19;;;;;;;;;;;;;;;16.42;70.92;99836.47;5011968;28;19913;-92
2022/04/13 12:12:55;;;;;;;;;;;;;;;16.42;70.57;99840.00;5028470;28;19917;-92
2022/04/13 12:15:20;;;;;;;;;;;;;;;16.46;71.01;99835.94;5011925;28;20366;-92
2022/04/13 12:17:45;;;;;;;;;;;;;;;16.46;70.52;99835.94;5027922;28;19913;-92
2022/04/13 12:20:27;;;;;;;;;;;;;;;16.45;69.80;99831.56;5027858;28;20385;-92
2022/04/13 12:23:12;;;;;;;;;;;;;;;16.46;69.90;99832.41;5027738;28;19917;-92
2022/04/13 12:25:43;;;;;;;;;;;;;;;16.45;70.72;99836.13;5029162;28;20028;-92
2022/04/13 12:28:09;;;;;;;;;;;;;;;16.54;70.23;99840.44;5027768;28;19913;-92
2022/04/13 12:30:34;;;;;;;;;;;;;;;16.58;69.65;99848.03;5011550;28;20012;-92
2022/04/13 12:32:59;;;;;;;;;;;;;;;16.49;70.87;99843.69;5011469;28;19923;-92
2022/04/13 12:35:24;;;;;;;;;;;;;;;16.43;71.67;99838.16;5027824;28;19979;-92
2022/04/13 12:37:51;;;;;;;;;;;;;;;16.40;71.02;99846.59;5027461;28;19959;-92
2022/04/13 12:40:20;;;;;;;;;;;;;;;16.47;71.20;99844.88;5027384;28;19963;-92
2022/04/13 12:42:45;;;;;;;;;;;;;;;16.56;70.46;99847.38;5011200;28;19917;-91
2022/04/13 12:45:11;;;;;;;;;;;;;;;16.70;69.47;99848.47;5009936;28;19913;-92